Jj Sky — VRJA6 — position and weather

sailwx.info

Track history (hours):
 
Tides and Currents Weather Stations Pressure Air Temp Water Temp Dewpoint Dewpoint Depression Visibility Wind Speed Wind Dir Waves Ship Positions

Jj Sky

Last reported at 2015-Apr-18 04:20 UTC. Time now 2015-Apr-18 11:36 UTC.
Position N 31°06' E 122°57'.

Length 148 m; draft 7.2 m.

Type: Ship. MMSI: 477397500.

Date/timePositionNaut miles runAvg speedWind from/ knotsBaromVisibWave heightAir tempDewpointWater temp
2015-Apr-18 04:20N 31°06' E 122°57'1717.5
2015-Apr-18 03:20N 31°06' E 122°37'810.4
2015-Apr-18 02:32N 31°05' E 122°27'0 0.2
2015-Apr-18 00:22N 31°05' E 122°27'0 0.0
2015-Apr-17 22:06N 31°04' E 122°27'3 0.8
2015-Apr-17 18:33N 31°06' E 122°24'1414.0
2015-Apr-17 17:33N 31°12' E 122°09'1212.2
2015-Apr-17 16:33N 31°15' E 121°55'1010.4
2015-Apr-17 15:33N 31°19' E 121°44'3 3.0
2015-Apr-17 14:31N 31°20' E 121°40'0 0.0
2015-Apr-17 13:32N 31°20' E 121°40'0 0.0
2015-Apr-17 12:33N 31°20' E 121°40'0 0.0
2015-Apr-17 11:30N 31°20' E 121°40'0 0.0
2015-Apr-17 10:32N 31°20' E 121°40'0 0.0
2015-Apr-17 09:32N 31°20' E 121°40'0 0.0
2015-Apr-17 08:32N 31°20' E 121°40'0 0.1
2015-Apr-17 07:33N 31°20' E 121°40'0 0.1
2015-Apr-17 06:29N 31°20' E 121°40'0 0.0
2015-Apr-17 05:33N 31°20' E 121°40'0 0.0
2015-Apr-17 04:33N 31°20' E 121°40'2 2.1
2015-Apr-17 03:34N 31°21' E 121°39'8 7.9
2015-Apr-17 02:33N 31°16' E 121°46'1312.6
2015-Apr-17 01:33N 31°07' E 121°56'1111.2
2015-Apr-17 00:33N 31°03' E 122°09'1110.3
2015-Apr-16 23:31N 31°02' E 122°21'1110.8
2015-Apr-16 22:33N 30°60' E 122°33'7 5.9
2015-Apr-16 21:26N 31°00' E 122°40'0 0.0
2015-Apr-16 20:25N 31°00' E 122°40'0 0.1
2015-Apr-16 19:26N 31°00' E 122°41'0 0.0
2015-Apr-16 18:31N 31°00' E 122°41'0 0.0
2015-Apr-16 17:19N 31°00' E 122°41'0 0.0
2015-Apr-16 16:30N 31°00' E 122°41'0 0.0
2015-Apr-16 14:32N 31°00' E 122°40'0 0.0
2015-Apr-16 13:26N 31°00' E 122°40'0 0.0
2015-Apr-16 12:07N 31°00' E 122°40'0 0.0
2015-Apr-16 11:25N 31°00' E 122°40'0 0.0
2015-Apr-16 10:31N 31°00' E 122°40'0 0.0
2015-Apr-16 09:30N 31°00' E 122°40'43511.7
2015-Apr-14 20:21N 34°02' E 130°29'1315.0
2015-Apr-14 19:30N 34°03' E 130°45'20413.5
2015-Apr-14 04:25N 34°34' E 134°48'1214.0
2015-Apr-14 03:33N 34°37' E 135°03'1010.3
2015-Apr-14 02:33N 34°40' E 135°15'0 0.1
2015-Apr-14 01:18N 34°39' E 135°14'0 0.0
2015-Apr-14 00:30N 34°39' E 135°14'0 0.0
2015-Apr-13 23:23N 34°39' E 135°14'0 0.0
2015-Apr-13 22:32N 34°39' E 135°14'6 5.8
2015-Apr-13 21:33N 34°39' E 135°21'2 2.0
2015-Apr-13 20:21N 34°39' E 135°24'0 0.0
2015-Apr-13 19:33N 34°39' E 135°24'0 0.0
2015-Apr-13 18:32N 34°39' E 135°24'0 0.1
2015-Apr-13 17:28N 34°39' E 135°24'0 0.0
2015-Apr-13 16:32N 34°39' E 135°24'0 0.0
2015-Apr-13 15:25N 34°39' E 135°24'0 0.0
2015-Apr-13 14:31N 34°39' E 135°24'0 0.1
2015-Apr-13 13:31N 34°39' E 135°24'0 0.0
2015-Apr-13 12:30N 34°39' E 135°24'0 0.1
2015-Apr-13 11:30N 34°39' E 135°24'0 0.1
2015-Apr-13 10:29N 34°39' E 135°24'0 0.1
2015-Apr-13 09:30N 34°39' E 135°24'0 0.1
2015-Apr-13 08:24N 34°39' E 135°24'0 0.1
2015-Apr-13 07:23N 34°39' E 135°24'0 0.0
2015-Apr-13 06:29N 34°39' E 135°24'0 0.0
2015-Apr-13 04:33N 34°39' E 135°24'0 0.1
2015-Apr-13 03:04N 34°39' E 135°24'0 0.0
2015-Apr-13 02:22N 34°39' E 135°24'0 0.0
2015-Apr-13 01:33N 34°39' E 135°24'0 0.1
2015-Apr-13 00:33N 34°39' E 135°24'0 0.1
2015-Apr-12 23:20N 34°39' E 135°24'0 0.1
2015-Apr-12 22:21N 34°39' E 135°24'2 2.8
2015-Apr-12 21:33N 34°38' E 135°22'1111.1
2015-Apr-12 20:33N 34°30' E 135°13'1212.5
2015-Apr-12 19:33N 34°21' E 135°03'1010.0
2015-Apr-12 18:33N 34°11' E 134°58'6 6.3
2015-Apr-12 17:33N 34°05' E 134°57'7 6.5
2015-Apr-12 16:32N 33°58' E 134°55'59514.0
2015-Apr-10 22:05N 31°06' E 123°40'1017.2
2015-Apr-10 21:32N 31°06' E 123°29'1717.0
2015-Apr-10 20:33N 31°07' E 123°09'1716.6
2015-Apr-10 19:32N 31°06' E 122°50'1616.5
2015-Apr-10 18:34N 31°05' E 122°31'1312.6
2015-Apr-10 17:33N 31°07' E 122°16'1111.0
2015-Apr-10 16:33N 31°14' E 122°06'1413.6
2015-Apr-10 15:33N 31°17' E 121°50'9 9.2
2015-Apr-10 14:33N 31°20' E 121°40'0 0.0
2015-Apr-10 13:31N 31°20' E 121°40'0 0.0
2015-Apr-10 12:33N 31°20' E 121°40'0 0.0
2015-Apr-10 11:32N 31°20' E 121°40'0 0.1
2015-Apr-10 10:32N 31°20' E 121°40'0 0.1
2015-Apr-10 09:31N 31°20' E 121°40'0 0.0
2015-Apr-10 08:25N 31°20' E 121°40'0 0.1
2015-Apr-10 07:31N 31°20' E 121°40'0 0.1
2015-Apr-10 06:33N 31°20' E 121°40'0 0.1
2015-Apr-10 05:33N 31°20' E 121°40'7 7.0
2015-Apr-10 04:33N 31°18' E 121°48'1312.7
2015-Apr-10 03:33N 31°14' E 122°03'1010.3
2015-Apr-10 02:33N 31°09' E 122°13'8 8.2
2015-Apr-10 01:33N 31°06' E 122°22'  
Track history (hours):
 
Tides and Currents Weather Stations Pressure Air Temp Water Temp Dewpoint Dewpoint Depression Visibility Wind Speed Wind Dir Waves Ship Positions

Jj Sky

Last reported at 2015-Apr-18 04:20 UTC. Time now 2015-Apr-18 11:36 UTC.
Position N 31°06' E 122°57'.

Length 148 m; draft 7.2 m.

Type: Ship. MMSI: 477397500.

Date/timePositionNaut miles runAvg speedWind from/ knotsBaromVisibWave heightAir tempDewpointWater temp
2015-Apr-18 04:20N 31°06' E 122°57'1717.5
2015-Apr-18 03:20N 31°06' E 122°37'810.4
2015-Apr-18 02:32N 31°05' E 122°27'0 0.2
2015-Apr-18 00:22N 31°05' E 122°27'0 0.0
2015-Apr-17 22:06N 31°04' E 122°27'3 0.8
2015-Apr-17 18:33N 31°06' E 122°24'1414.0
2015-Apr-17 17:33N 31°12' E 122°09'1212.2
2015-Apr-17 16:33N 31°15' E 121°55'1010.4
2015-Apr-17 15:33N 31°19' E 121°44'3 3.0
2015-Apr-17 14:31N 31°20' E 121°40'0 0.0
2015-Apr-17 13:32N 31°20' E 121°40'0 0.0
2015-Apr-17 12:33N 31°20' E 121°40'0 0.0
2015-Apr-17 11:30N 31°20' E 121°40'0 0.0
2015-Apr-17 10:32N 31°20' E 121°40'0 0.0
2015-Apr-17 09:32N 31°20' E 121°40'0 0.0
2015-Apr-17 08:32N 31°20' E 121°40'0 0.1
2015-Apr-17 07:33N 31°20' E 121°40'0 0.1
2015-Apr-17 06:29N 31°20' E 121°40'0 0.0
2015-Apr-17 05:33N 31°20' E 121°40'0 0.0
2015-Apr-17 04:33N 31°20' E 121°40'2 2.1
2015-Apr-17 03:34N 31°21' E 121°39'8 7.9
2015-Apr-17 02:33N 31°16' E 121°46'1312.6
2015-Apr-17 01:33N 31°07' E 121°56'1111.2
2015-Apr-17 00:33N 31°03' E 122°09'1110.3
2015-Apr-16 23:31N 31°02' E 122°21'1110.8
2015-Apr-16 22:33N 30°60' E 122°33'7 5.9
2015-Apr-16 21:26N 31°00' E 122°40'0 0.0
2015-Apr-16 20:25N 31°00' E 122°40'0 0.1
2015-Apr-16 19:26N 31°00' E 122°41'0 0.0
2015-Apr-16 18:31N 31°00' E 122°41'0 0.0
2015-Apr-16 17:19N 31°00' E 122°41'0 0.0
2015-Apr-16 16:30N 31°00' E 122°41'0 0.0
2015-Apr-16 14:32N 31°00' E 122°40'0 0.0
2015-Apr-16 13:26N 31°00' E 122°40'0 0.0
2015-Apr-16 12:07N 31°00' E 122°40'0 0.0
2015-Apr-16 11:25N 31°00' E 122°40'0 0.0
2015-Apr-16 10:31N 31°00' E 122°40'0 0.0
2015-Apr-16 09:30N 31°00' E 122°40'43511.7
2015-Apr-14 20:21N 34°02' E 130°29'1315.0
2015-Apr-14 19:30N 34°03' E 130°45'20413.5
2015-Apr-14 04:25N 34°34' E 134°48'1214.0
2015-Apr-14 03:33N 34°37' E 135°03'1010.3
2015-Apr-14 02:33N 34°40' E 135°15'0 0.1
2015-Apr-14 01:18N 34°39' E 135°14'0 0.0
2015-Apr-14 00:30N 34°39' E 135°14'0 0.0
2015-Apr-13 23:23N 34°39' E 135°14'0 0.0
2015-Apr-13 22:32N 34°39' E 135°14'6 5.8
2015-Apr-13 21:33N 34°39' E 135°21'2 2.0
2015-Apr-13 20:21N 34°39' E 135°24'0 0.0
2015-Apr-13 19:33N 34°39' E 135°24'0 0.0
2015-Apr-13 18:32N 34°39' E 135°24'0 0.1
2015-Apr-13 17:28N 34°39' E 135°24'0 0.0
2015-Apr-13 16:32N 34°39' E 135°24'0 0.0
2015-Apr-13 15:25N 34°39' E 135°24'0 0.0
2015-Apr-13 14:31N 34°39' E 135°24'0 0.1
2015-Apr-13 13:31N 34°39' E 135°24'0 0.0
2015-Apr-13 12:30N 34°39' E 135°24'0 0.1
2015-Apr-13 11:30N 34°39' E 135°24'0 0.1
2015-Apr-13 10:29N 34°39' E 135°24'0 0.1
2015-Apr-13 09:30N 34°39' E 135°24'0 0.1
2015-Apr-13 08:24N 34°39' E 135°24'0 0.1
2015-Apr-13 07:23N 34°39' E 135°24'0 0.0
2015-Apr-13 06:29N 34°39' E 135°24'0 0.0
2015-Apr-13 04:33N 34°39' E 135°24'0 0.1
2015-Apr-13 03:04N 34°39' E 135°24'0 0.0
2015-Apr-13 02:22N 34°39' E 135°24'0 0.0
2015-Apr-13 01:33N 34°39' E 135°24'0 0.1
2015-Apr-13 00:33N 34°39' E 135°24'0 0.1
2015-Apr-12 23:20N 34°39' E 135°24'0 0.1
2015-Apr-12 22:21N 34°39' E 135°24'2 2.8
2015-Apr-12 21:33N 34°38' E 135°22'1111.1
2015-Apr-12 20:33N 34°30' E 135°13'1212.5
2015-Apr-12 19:33N 34°21' E 135°03'1010.0
2015-Apr-12 18:33N 34°11' E 134°58'6 6.3
2015-Apr-12 17:33N 34°05' E 134°57'7 6.5
2015-Apr-12 16:32N 33°58' E 134°55'59514.0
2015-Apr-10 22:05N 31°06' E 123°40'1017.2
2015-Apr-10 21:32N 31°06' E 123°29'1717.0
2015-Apr-10 20:33N 31°07' E 123°09'1716.6
2015-Apr-10 19:32N 31°06' E 122°50'1616.5
2015-Apr-10 18:34N 31°05' E 122°31'1312.6
2015-Apr-10 17:33N 31°07' E 122°16'1111.0
2015-Apr-10 16:33N 31°14' E 122°06'1413.6
2015-Apr-10 15:33N 31°17' E 121°50'9 9.2
2015-Apr-10 14:33N 31°20' E 121°40'0 0.0
2015-Apr-10 13:31N 31°20' E 121°40'0 0.0
2015-Apr-10 12:33N 31°20' E 121°40'0 0.0
2015-Apr-10 11:32N 31°20' E 121°40'0 0.1
2015-Apr-10 10:32N 31°20' E 121°40'0 0.1
2015-Apr-10 09:31N 31°20' E 121°40'0 0.0
2015-Apr-10 08:25N 31°20' E 121°40'0 0.1
2015-Apr-10 07:31N 31°20' E 121°40'0 0.1
2015-Apr-10 06:33N 31°20' E 121°40'0 0.1
2015-Apr-10 05:33N 31°20' E 121°40'7 7.0
2015-Apr-10 04:33N 31°18' E 121°48'1312.7
2015-Apr-10 03:33N 31°14' E 122°03'1010.3
2015-Apr-10 02:33N 31°09' E 122°13'8 8.2
2015-Apr-10 01:33N 31°06' E 122°22'  

Dump ship's entire track history